Time;durP1;ratioP1;P1;durP2;ratioP2;P2;SDS_P1;SDS_P2;PMS_P1;PMS_P2;Temp;Humidity;BMP_temperature;BMP_pressure;BME280_temperature;BME280_humidity;BME280_pressure;Samples;Min_cycle;Max_cycle;Signal;HPM_P1;HPM_P2
2021/11/05 00:00:08;;;;;;;24.08;11.02;;;;;;;7.34;100.00;97223.59;5102030;28;20110;-81
2021/11/05 00:02:34;;;;;;;22.15;10.65;;;;;;;7.36;100.00;97232.16;5119440;28;20104;-80
2021/11/05 00:05:01;;;;;;;21.70;11.18;;;;;;;7.38;100.00;97240.72;5121039;28;20043;-79
2021/11/05 00:07:27;;;;;;;20.45;10.68;;;;;;;7.40;100.00;97246.63;5102038;28;20048;-80
2021/11/05 00:09:54;;;;;;;23.67;10.57;;;;;;;7.34;100.00;97242.44;5101854;28;20090;-78
2021/11/05 00:12:21;;;;;;;21.80;11.55;;;;;;;7.25;100.00;97243.47;5119532;28;20047;-79
2021/11/05 00:14:47;;;;;;;21.60;10.95;;;;;;;7.30;100.00;97248.75;5119612;28;20073;-81
2021/11/05 00:17:14;;;;;;;23.77;11.15;;;;;;;7.33;100.00;97250.84;5101789;28;20048;-79
2021/11/05 00:19:40;;;;;;;26.38;11.50;;;;;;;7.34;100.00;97260.50;5102214;28;20055;-79
2021/11/05 00:22:07;;;;;;;27.20;12.48;;;;;;;7.35;100.00;97259.41;5120367;28;20070;-78
2021/11/05 00:24:34;;;;;;;24.65;12.80;;;;;;;7.39;100.00;97271.16;5120441;28;20079;-79
2021/11/05 00:27:01;;;;;;;24.17;12.00;;;;;;;7.39;100.00;97252.31;5119731;28;20070;-79
2021/11/05 00:29:27;;;;;;;26.05;12.68;;;;;;;7.42;100.00;97270.56;5101767;28;20050;-78
2021/11/05 00:31:54;;;;;;;24.40;12.23;;;;;;;7.42;100.00;97271.34;5118473;28;20070;-79
2021/11/05 00:34:20;;;;;;;26.00;12.68;;;;;;;7.44;100.00;97274.53;5120510;28;20073;-80
2021/11/05 00:36:48;;;;;;;25.45;12.30;;;;;;;7.41;100.00;97272.44;5106844;28;20043;-79
2021/11/05 00:39:15;;;;;;;25.88;12.50;;;;;;;7.44;100.00;97276.41;5120393;28;20044;-79
2021/11/05 00:41:43;;;;;;;25.67;13.25;;;;;;;7.38;100.00;97264.97;5101832;28;20047;-80
2021/11/05 00:44:09;;;;;;;27.20;13.48;;;;;;;7.47;100.00;97273.94;5120245;28;20052;-79
2021/11/05 00:46:36;;;;;;;23.63;12.77;;;;;;;7.40;100.00;97272.75;5104802;28;20112;-79
2021/11/05 00:49:03;;;;;;;22.63;11.95;;;;;;;7.44;100.00;97279.91;5109011;28;20523;-80
2021/11/05 00:51:30;;;;;;;23.70;12.77;;;;;;;7.40;100.00;97283.53;5108610;28;20051;-79
2021/11/05 00:53:56;;;;;;;25.60;13.18;;;;;;;7.42;100.00;97286.72;5104346;28;20070;-80
2021/11/05 00:56:23;;;;;;;22.90;12.15;;;;;;;7.45;100.00;97292.28;5120456;28;20056;-78
2021/11/05 00:58:51;;;;;;;22.27;11.93;;;;;;;7.43;100.00;97299.84;5103158;28;20109;-80
2021/11/05 01:01:17;;;;;;;25.60;12.23;;;;;;;7.39;100.00;97295.38;5101191;28;20040;-79
2021/11/05 01:03:44;;;;;;;21.02;11.05;;;;;;;7.37;100.00;97302.97;5121700;28;20108;-79
2021/11/05 01:06:13;;;;;;;23.10;12.07;;;;;;;7.37;100.00;97294.91;5124294;28;20051;-80
2021/11/05 01:08:39;;;;;;;23.40;11.90;;;;;;;7.41;100.00;97302.06;5104688;28;20047;-81
2021/11/05 01:11:07;;;;;;;24.08;12.13;;;;;;;7.42;100.00;97309.06;5125063;28;20427;-81
2021/11/05 01:13:34;;;;;;;23.92;11.45;;;;;;;7.44;100.00;97306.03;5105745;28;20100;-78
2021/11/05 01:16:00;;;;;;;20.60;11.65;;;;;;;7.34;100.00;97300.88;5102462;28;20506;-81
2021/11/05 01:18:27;;;;;;;20.88;11.30;;;;;;;7.31;100.00;97296.91;5104369;28;20101;-80
2021/11/05 01:20:54;;;;;;;22.50;11.45;;;;;;;7.38;100.00;97313.44;5106728;28;20044;-80
2021/11/05 01:23:21;;;;;;;20.35;11.15;;;;;;;7.35;100.00;97310.56;5124843;28;20051;-78
2021/11/05 01:25:49;;;;;;;20.85;11.88;;;;;;;7.48;100.00;97307.81;5105183;28;20050;-78
2021/11/05 01:28:15;;;;;;;22.27;11.32;;;;;;;7.41;100.00;97309.34;5122773;28;20070;-80
2021/11/05 01:30:42;;;;;;;19.58;10.25;;;;;;;7.46;100.00;97315.41;5108340;28;20051;-79
2021/11/05 01:33:10;;;;;;;18.67;10.68;;;;;;;7.39;100.00;97325.81;5108839;28;20055;-80
2021/11/05 01:35:39;;;;;;;19.45;9.18;;;;;;;7.43;100.00;97334.88;5124480;28;20155;-80
2021/11/05 01:38:08;;;;;;;18.70;10.13;;;;;;;7.33;100.00;97323.53;5104590;28;20230;-80
2021/11/05 01:40:37;;;;;;;14.68;8.93;;;;;;;7.42;100.00;97322.50;5123858;28;20044;-79
2021/11/05 01:43:04;;;;;;;19.98;9.75;;;;;;;7.33;100.00;97323.53;5104063;28;20066;-79
2021/11/05 01:45:33;;;;;;;15.98;8.73;;;;;;;7.32;100.00;97324.63;5123314;28;20051;-79
2021/11/05 01:48:00;;;;;;;15.70;8.60;;;;;;;7.33;100.00;97335.06;5104353;28;20055;-79
2021/11/05 01:50:27;;;;;;;16.77;9.20;;;;;;;7.35;100.00;97330.22;5120624;28;20054;-79
2021/11/05 01:52:55;;;;;;;14.27;8.32;;;;;;;7.29;100.00;97330.59;5100622;28;20320;-80
2021/11/05 01:55:22;;;;;;;15.40;8.13;;;;;;;7.30;100.00;97334.91;5099959;28;20059;-78
2021/11/05 01:57:49;;;;;;;13.15;8.02;;;;;;;7.29;100.00;97336.00;5098957;28;20097;-79
2021/11/05 02:00:21;;;;;;;15.73;8.40;;;;;;;7.28;100.00;97339.75;5119168;28;20040;-80
2021/11/05 02:02:48;;;;;;;14.25;7.63;;;;;;;7.30;100.00;97338.38;5120138;28;20051;-80
2021/11/05 02:05:15;;;;;;;12.38;7.18;;;;;;;7.30;100.00;97340.28;5103416;28;20054;-76
2021/11/05 02:07:47;;;;;;;14.63;7.80;;;;;;;7.28;100.00;97355.91;5119995;28;20048;-79
2021/11/05 02:10:14;;;;;;;13.57;7.85;;;;;;;7.34;100.00;97350.16;5100475;28;20449;-79
2021/11/05 02:12:41;;;;;;;17.13;8.23;;;;;;;7.28;100.00;97364.81;5117412;28;20123;-79
2021/11/05 02:15:08;;;;;;;16.50;8.48;;;;;;;7.33;100.00;97355.84;5117207;28;20062;-79
2021/11/05 02:17:35;;;;;;;17.40;8.55;;;;;;;7.33;100.00;97366.63;5118260;28;20051;-81
2021/11/05 02:20:05;;;;;;;15.07;8.52;;;;;;;7.30;100.00;97359.13;5123335;28;20722;-81
2021/11/05 02:22:32;;;;;;;15.50;8.57;;;;;;;7.28;100.00;97377.47;5122517;28;20106;-80
2021/11/05 02:24:59;;;;;;;15.15;8.32;;;;;;;7.31;100.00;97360.72;5103130;28;20055;-79
2021/11/05 02:27:29;;;;;;;13.70;8.57;;;;;;;7.31;100.00;97360.72;5103824;28;20491;-80
2021/11/05 02:29:56;;;;;;;18.10;9.60;;;;;;;7.28;100.00;97361.31;5121636;28;20077;-79
2021/11/05 02:32:24;;;;;;;16.23;10.27;;;;;;;7.23;100.00;97369.47;5121518;28;20104;-79
2021/11/05 02:34:50;;;;;;;17.55;10.05;;;;;;;7.26;100.00;97369.69;5105776;28;20054;-79
2021/11/05 02:37:24;;;;;;;16.15;9.75;;;;;;;7.23;100.00;97375.66;5122612;28;20051;-79
2021/11/05 02:39:52;;;;;;;22.08;10.65;;;;;;;7.28;100.00;97372.88;5102430;28;20044;-78
2021/11/05 02:42:19;;;;;;;16.50;10.20;;;;;;;7.24;100.00;97373.78;5102991;28;20044;-80
2021/11/05 02:44:47;;;;;;;19.67;11.00;;;;;;;7.19;100.00;97372.00;5119702;28;20435;-79
2021/11/05 02:47:17;;;;;;;16.25;10.52;;;;;;;7.10;100.00;97384.53;5120705;28;20047;-80
2021/11/05 02:49:45;;;;;;;20.75;12.35;;;;;;;7.12;100.00;97401.22;5119987;28;20068;-79
2021/11/05 02:52:13;;;;;;;17.92;11.32;;;;;;;7.05;100.00;97395.41;5122433;28;20039;-79
2021/11/05 02:54:40;;;;;;;19.27;12.27;;;;;;;6.99;100.00;97396.63;5102953;28;20055;-79
2021/11/05 02:57:08;;;;;;;23.08;12.07;;;;;;;6.92;100.00;97414.25;5103625;28;20121;-80
2021/11/05 02:59:35;;;;;;;21.08;13.02;;;;;;;6.92;100.00;97403.47;5120452;28;20047;-79
2021/11/05 03:02:02;;;;;;;22.92;13.48;;;;;;;6.93;100.00;97419.31;5102635;28;20059;-79
2021/11/05 03:04:29;;;;;;;22.33;12.90;;;;;;;6.96;100.00;97417.91;5101135;28;20055;-79
2021/11/05 03:07:07;;;;;;;25.20;13.55;;;;;;;6.94;100.00;97426.31;5102892;28;20058;-80
2021/11/05 03:09:40;;;;;;;22.92;14.15;;;;;;;6.87;100.00;97432.06;5119742;28;20108;-79
2021/11/05 03:12:09;;;;;;;23.02;13.50;;;;;;;6.87;100.00;97428.56;5102214;28;20043;-79
2021/11/05 03:14:38;;;;;;;21.30;13.40;;;;;;;6.87;100.00;97433.94;5119675;28;20552;-79
2021/11/05 03:17:15;;;;;;;22.67;13.57;;;;;;;6.82;100.00;97425.97;5103670;28;20131;-80
2021/11/05 03:19:43;;;;;;;20.33;11.90;;;;;;;6.93;100.00;97440.03;5101634;28;20070;-79
2021/11/05 03:22:09;;;;;;;22.38;13.10;;;;;;;6.95;100.00;97440.53;5118779;28;20044;-78
2021/11/05 03:24:36;;;;;;;23.08;13.45;;;;;;;6.92;100.00;97438.47;5101241;28;20044;-79
2021/11/05 03:27:03;;;;;;;21.63;12.80;;;;;;;6.94;100.00;97458.59;5100951;28;20048;-78
2021/11/05 03:29:29;;;;;;;20.40;12.43;;;;;;;6.87;100.00;97442.00;5099809;28;20043;-79
2021/11/05 03:31:56;;;;;;;21.45;13.23;;;;;;;6.89;100.00;97448.69;5099893;28;20058;-81
2021/11/05 03:34:23;;;;;;;22.08;12.95;;;;;;;6.87;100.00;97442.00;5118587;28;20066;-79
2021/11/05 03:36:50;;;;;;;22.08;13.13;;;;;;;6.86;100.00;97451.97;5118738;28;20054;-78
2021/11/05 03:39:16;;;;;;;22.02;13.50;;;;;;;6.82;100.00;97453.66;5100683;28;20051;-79
2021/11/05 03:41:43;;;;;;;21.30;12.73;;;;;;;6.84;100.00;97458.75;5101087;28;20489;-79
2021/11/05 03:44:10;;;;;;;23.98;13.05;;;;;;;6.85;100.00;97465.72;5102236;28;20051;-80
2021/11/05 03:46:37;;;;;;;21.55;13.18;;;;;;;6.76;100.00;97468.28;5101287;28;20074;-80
2021/11/05 03:49:04;;;;;;;21.10;12.27;;;;;;;6.82;100.00;97467.13;5103439;28;20108;-79
2021/11/05 03:51:31;;;;;;;20.25;12.48;;;;;;;6.76;100.00;97479.03;5099435;28;20051;-79
2021/11/05 03:53:58;;;;;;;20.88;13.20;;;;;;;6.79;100.00;97485.72;5099379;28;20052;-80
2021/11/05 03:56:25;;;;;;;21.67;12.27;;;;;;;6.84;100.00;97491.03;5099311;28;20063;-79
2021/11/05 03:58:52;;;;;;;20.35;12.20;;;;;;;6.76;100.00;97495.19;5100537;28;20104;-78
2021/11/05 04:01:20;;;;;;;20.70;12.88;;;;;;;6.75;100.00;97496.28;5117352;28;20065;-79
2021/11/05 04:03:48;;;;;;;21.00;12.27;;;;;;;6.74;100.00;97494.69;5099520;28;20044;-78
2021/11/05 04:06:19;;;;;;;21.33;12.43;;;;;;;6.69;100.00;97499.34;5116537;28;20044;-79
2021/11/05 04:08:46;;;;;;;22.30;11.93;;;;;;;6.74;100.00;97501.94;5097681;28;20048;-78
2021/11/05 04:11:14;;;;;;;21.58;13.50;;;;;;;6.71;100.00;97516.78;5099172;28;20044;-78
2021/11/05 04:13:42;;;;;;;20.42;12.05;;;;;;;6.68;100.00;97513.91;5099289;28;20043;-79
2021/11/05 04:16:09;;;;;;;20.83;13.05;;;;;;;6.70;100.00;97514.41;5117750;28;20472;-78
2021/11/05 04:18:36;;;;;;;21.63;12.55;;;;;;;6.65;100.00;97530.63;5119900;28;20052;-80
2021/11/05 04:21:02;;;;;;;21.35;12.90;;;;;;;6.67;100.00;97528.44;5100667;28;20047;-78
2021/11/05 04:23:29;;;;;;;21.63;13.10;;;;;;;6.65;100.00;97515.28;5106349;28;20047;-79
2021/11/05 04:25:56;;;;;;;21.20;13.32;;;;;;;6.73;100.00;97529.97;5121096;28;20047;-79
2021/11/05 04:28:22;;;;;;;24.35;13.00;;;;;;;6.71;100.00;97526.78;5101488;28;20381;-79
2021/11/05 04:30:49;;;;;;;22.30;12.23;;;;;;;6.76;100.00;97535.53;5100183;28;20047;-80
2021/11/05 04:33:16;;;;;;;21.80;12.77;;;;;;;6.73;100.00;97540.72;5100453;28;20047;-79
2021/11/05 04:35:43;;;;;;;23.00;13.38;;;;;;;6.77;100.00;97553.28;5119963;28;20047;-79
2021/11/05 04:38:11;;;;;;;25.23;13.35;;;;;;;6.84;100.00;97544.84;5120719;28;20108;-79
2021/11/05 04:40:38;;;;;;;25.73;14.52;;;;;;;6.91;100.00;97539.91;5095773;28;20462;-80
2021/11/05 04:43:05;;;;;;;26.83;15.52;;;;;;;6.89;100.00;97550.16;5102054;28;20483;-80
2021/11/05 04:45:33;;;;;;;22.08;13.40;;;;;;;6.85;100.00;97555.31;5102797;28;20048;-80
2021/11/05 04:47:59;;;;;;;26.13;14.10;;;;;;;6.75;100.00;97551.97;5084949;28;20774;-79
2021/11/05 04:50:27;;;;;;;28.33;14.90;;;;;;;6.85;100.00;97559.91;5082772;28;20113;-79
2021/11/05 04:52:54;;;;;;;27.70;14.07;;;;;;;6.76;100.00;97554.38;5103351;28;20078;-79
2021/11/05 04:55:21;;;;;;;24.77;13.95;;;;;;;6.79;100.00;97563.75;5102154;28;20416;-79
2021/11/05 04:57:51;;;;;;;26.13;14.88;;;;;;;6.85;100.00;97576.03;5085189;28;20048;-78
2021/11/05 05:00:20;;;;;;;29.05;15.48;;;;;;;6.89;100.00;97580.53;5102141;28;20113;-79
2021/11/05 05:02:47;;;;;;;29.73;15.65;;;;;;;6.82;100.00;97577.44;5084311;28;20044;-79
2021/11/05 05:05:14;;;;;;;28.08;14.80;;;;;;;6.83;100.00;97575.53;5084043;28;20044;-79
2021/11/05 05:07:42;;;;;;;25.88;13.77;;;;;;;6.79;100.00;97587.97;5099478;28;20055;-80
2021/11/05 05:10:10;;;;;;;28.27;14.73;;;;;;;6.89;100.00;97590.53;5081899;28;20054;-80
2021/11/05 05:12:38;;;;;;;29.92;14.73;;;;;;;6.89;100.00;97582.47;5099732;28;20040;-79
2021/11/05 05:15:06;;;;;;;25.02;14.40;;;;;;;6.78;100.00;97597.13;5099214;28;20058;-80
2021/11/05 05:17:33;;;;;;;25.85;14.77;;;;;;;6.84;100.00;97595.97;5080069;28;20087;-79
2021/11/05 05:20:00;;;;;;;26.83;13.20;;;;;;;6.76;100.00;97592.03;5080408;28;20048;-80
2021/11/05 05:22:26;;;;;;;24.45;12.93;;;;;;;6.77;100.00;97592.84;5083146;28;20048;-80
2021/11/05 05:24:53;;;;;;;23.55;13.18;;;;;;;6.80;100.00;97594.94;5085487;28;20047;-79
2021/11/05 05:27:20;;;;;;;26.33;13.35;;;;;;;6.86;100.00;97589.19;5104230;28;20052;-79
2021/11/05 05:29:48;;;;;;;23.13;13.07;;;;;;;6.79;100.00;97596.03;5087181;28;20054;-80
2021/11/05 05:32:17;;;;;;;23.50;13.10;;;;;;;6.84;100.00;97604.84;5088443;28;20496;-80
2021/11/05 05:34:47;;;;;;;25.13;12.98;;;;;;;6.93;100.00;97613.06;5105134;28;20109;-80
2021/11/05 05:37:14;;;;;;;29.10;14.40;;;;;;;7.01;100.00;97612.41;5097467;28;20052;-79
2021/11/05 05:39:41;;;;;;;27.13;14.68;;;;;;;6.90;100.00;97609.06;5075467;28;20098;-79
2021/11/05 05:42:07;;;;;;;27.65;14.65;;;;;;;6.86;100.00;97624.16;5093869;28;20052;-79
2021/11/05 05:44:34;;;;;;;22.15;13.05;;;;;;;6.80;100.00;97613.78;5075761;28;20051;-80
2021/11/05 05:47:02;;;;;;;23.38;13.10;;;;;;;6.75;100.00;97632.69;5076371;28;20561;-80
2021/11/05 05:49:29;;;;;;;23.80;12.75;;;;;;;6.69;100.00;97628.47;5093533;28;20056;-79
2021/11/05 05:51:55;;;;;;;22.60;11.23;;;;;;;6.83;100.00;97635.53;5093065;28;20515;-79
2021/11/05 05:54:22;;;;;;;21.58;11.30;;;;;;;7.00;100.00;97639.59;5093168;28;20060;-79
2021/11/05 05:56:48;;;;;;;24.92;12.65;;;;;;;7.00;100.00;97659.22;5093783;28;20176;-79
2021/11/05 05:59:15;;;;;;;20.10;11.88;;;;;;;6.90;100.00;97654.00;5076504;28;20110;-79
2021/11/05 06:01:41;;;;;;;19.38;11.50;;;;;;;6.96;100.00;97660.91;5093955;28;20424;-79
2021/11/05 06:04:08;;;;;;;25.13;13.32;;;;;;;6.90;100.00;97660.19;5095370;28;20056;-80
2021/11/05 06:06:34;;;;;;;24.95;12.98;;;;;;;7.02;100.00;97667.81;5094714;27;20563;-80
2021/11/05 06:09:01;;;;;;;25.63;12.80;;;;;;;6.98;100.00;97674.88;5099177;27;20042;-77
2021/11/05 06:11:27;;;;;;;29.08;14.25;;;;;;;6.97;100.00;97680.56;5094766;28;20050;-78
2021/11/05 06:13:54;;;;;;;29.83;14.20;;;;;;;6.97;100.00;97684.03;5115306;27;20051;-78
2021/11/05 06:16:21;;;;;;;23.02;12.70;;;;;;;6.91;100.00;97690.59;5115636;27;20104;-79
2021/11/05 06:18:47;;;;;;;28.35;14.55;;;;;;;6.92;100.00;97694.09;5117909;27;20544;-78
2021/11/05 06:21:14;;;;;;;27.83;13.93;;;;;;;6.95;100.00;97698.88;5094860;28;20423;-78
2021/11/05 06:23:41;;;;;;;21.10;12.25;;;;;;;6.88;100.00;97701.94;5097562;28;20538;-79
2021/11/05 06:26:08;;;;;;;20.85;11.35;;;;;;;6.83;100.00;97710.88;5116313;28;20084;-80
2021/11/05 06:28:35;;;;;;;22.30;12.45;;;;;;;6.95;100.00;97712.31;5095787;28;20047;-80
2021/11/05 06:31:01;;;;;;;23.50;12.85;;;;;;;6.94;100.00;97719.63;5095118;28;20050;-80
2021/11/05 06:33:28;;;;;;;22.90;12.60;;;;;;;6.90;100.00;97719.38;5093848;28;20082;-79
2021/11/05 06:35:54;;;;;;;21.17;11.75;;;;;;;6.76;100.00;97731.16;5111473;28;20051;-79
2021/11/05 06:38:21;;;;;;;23.50;12.68;;;;;;;6.86;100.00;97742.56;5099064;27;20640;-78
2021/11/05 06:40:48;;;;;;;19.02;11.00;;;;;;;6.85;100.00;97740.16;5115127;27;20055;-79
2021/11/05 06:43:14;;;;;;;21.38;12.75;;;;;;;7.00;100.00;97731.91;5115155;27;20471;-80
2021/11/05 06:45:41;;;;;;;26.67;13.77;;;;;;;6.98;100.00;97752.13;5115827;27;20475;-79
2021/11/05 06:48:07;;;;;;;11.55;6.10;;;;;;;6.77;100.00;97762.31;5105642;28;20055;-79
2021/11/05 06:50:34;;;;;;;8.65;4.63;;;;;;;6.63;100.00;97754.13;5095562;28;20052;-78
2021/11/05 06:53:01;;;;;;;9.75;4.88;;;;;;;6.59;100.00;97765.75;5093269;28;20480;-78
2021/11/05 06:55:28;;;;;;;11.43;5.90;;;;;;;6.65;100.00;97772.69;5080595;28;20035;-79
2021/11/05 06:57:56;;;;;;;15.88;6.57;;;;;;;6.66;100.00;97785.84;5109645;28;20051;-79
2021/11/05 07:00:49;;;;;;;15.88;7.30;;;;;;;6.71;100.00;97782.31;5088673;28;20043;-78
2021/11/05 07:03:16;;;;;;;15.40;6.93;;;;;;;6.70;100.00;97789.59;5114073;27;20048;-78
2021/11/05 07:05:43;;;;;;;18.63;7.07;;;;;;;6.66;100.00;97799.28;5094876;28;20058;-79
2021/11/05 07:08:10;;;;;;;14.23;7.68;;;;;;;6.67;100.00;97805.50;5095465;28;20055;-78
2021/11/05 07:10:37;;;;;;;14.20;7.72;;;;;;;6.75;100.00;97805.66;5095296;28;20522;-79
2021/11/05 07:13:04;;;;;;;15.77;8.85;;;;;;;6.81;100.00;97817.19;5095183;28;20043;-79
2021/11/05 07:15:30;;;;;;;22.10;9.05;;;;;;;6.85;100.00;97831.66;5095483;28;20057;-79
2021/11/05 07:17:58;;;;;;;23.45;10.23;;;;;;;6.96;100.00;97830.47;5113411;28;20531;-78
2021/11/05 07:20:26;;;;;;;21.25;10.65;;;;;;;6.89;100.00;97828.09;5095341;28;20589;-78
2021/11/05 07:22:53;;;;;;;22.13;10.95;;;;;;;6.98;100.00;97841.75;5113549;28;20479;-79
2021/11/05 07:25:23;;;;;;;21.63;10.38;;;;;;;6.95;100.00;97839.63;5076113;28;20108;-78
2021/11/05 07:27:50;;;;;;;23.00;10.60;;;;;;;6.95;100.00;97849.56;5095572;28;20472;-78
2021/11/05 07:30:17;;;;;;;23.08;10.48;;;;;;;6.96;100.00;97848.50;5114798;28;20149;-78
2021/11/05 07:32:47;;;;;;;19.55;10.02;;;;;;;7.00;100.00;97853.00;5112853;28;20052;-79
2021/11/05 07:35:19;;;;;;;17.92;9.05;;;;;;;6.95;100.00;97852.25;5114000;28;20052;-78
2021/11/05 07:37:46;;;;;;;15.85;8.15;;;;;;;6.99;100.00;97864.88;5095676;28;20077;-78
2021/11/05 07:40:13;;;;;;;13.98;7.82;;;;;;;7.03;100.00;97870.47;5113737;28;20069;-79
2021/11/05 07:42:41;;;;;;;14.60;7.03;;;;;;;6.98;100.00;97874.03;5095593;28;20043;-78
2021/11/05 07:45:11;;;;;;;15.18;7.32;;;;;;;6.94;100.00;97881.09;5093468;28;20094;-78
2021/11/05 07:47:39;;;;;;;12.45;6.88;;;;;;;6.95;100.00;97890.75;5086562;28;20048;-78
2021/11/05 07:50:08;;;;;;;15.25;7.07;;;;;;;7.05;100.00;97892.53;5095329;28;20124;-77
2021/11/05 07:52:35;;;;;;;14.88;7.10;;;;;;;7.03;100.00;97897.41;5095521;28;20043;-78
2021/11/05 07:55:03;;;;;;;12.98;6.82;;;;;;;7.02;100.00;97891.22;5094616;28;20056;-78
2021/11/05 07:57:29;;;;;;;15.50;7.72;;;;;;;7.06;100.00;97886.88;5076964;28;20077;-78
2021/11/05 07:59:58;;;;;;;14.27;7.65;;;;;;;7.19;100.00;97906.94;5094450;28;20624;-79
2021/11/05 08:02:25;;;;;;;14.07;7.78;;;;;;;7.19;100.00;97905.03;5113264;28;20597;-80
2021/11/05 08:07:32;;;;;;;12.65;6.68;;;;;;;7.08;100.00;97917.00;5045054;28;20045;-85
2021/11/05 08:09:58;;;;;;;11.38;6.60;;;;;;;7.18;100.00;97921.47;5031371;28;20049;-84
2021/11/05 08:12:25;;;;;;;13.32;7.90;;;;;;;7.18;100.00;97921.47;5046693;28;20147;-85
2021/11/05 08:14:52;;;;;;;14.85;8.40;;;;;;;7.12;100.00;97931.50;5046456;28;20065;-86
2021/11/05 08:17:18;;;;;;;16.10;7.60;;;;;;;7.10;100.00;97922.88;5047595;28;20582;-83
2021/11/05 08:19:45;;;;;;;17.80;8.50;;;;;;;7.18;100.00;97938.41;5030194;28;20237;-84
2021/11/05 08:22:11;;;;;;;16.90;8.75;;;;;;;7.26;100.00;97945.88;5030450;28;20060;-85
2021/11/05 08:24:38;;;;;;;12.27;6.82;;;;;;;7.13;100.00;97933.09;5047847;28;20056;-86
2021/11/05 08:27:05;;;;;;;9.93;5.63;;;;;;;7.14;100.00;97941.97;5030716;28;20071;-84
2021/11/05 08:29:31;;;;;;;10.00;5.43;;;;;;;7.27;100.00;97950.19;5047931;28;20405;-85
2021/11/05 08:31:58;;;;;;;10.80;6.22;;;;;;;7.25;100.00;97946.94;5029358;28;20068;-85
2021/11/05 08:34:25;;;;;;;13.10;6.43;;;;;;;7.42;100.00;97958.09;5046329;28;20097;-87
2021/11/05 08:36:51;;;;;;;12.00;6.55;;;;;;;7.33;100.00;97961.72;5046294;28;20080;-84
2021/11/05 08:39:18;;;;;;;13.43;7.30;;;;;;;7.23;100.00;97967.19;5028957;28;20073;-86
2021/11/05 08:41:45;;;;;;;13.27;8.15;;;;;;;7.20;100.00;97965.84;5028621;28;20068;-86
2021/11/05 08:44:11;;;;;;;16.23;7.85;;;;;;;7.32;100.00;97971.69;5028894;28;20063;-86
2021/11/05 08:46:38;;;;;;;15.70;8.35;;;;;;;7.34;100.00;97977.56;5047200;28;20126;-85
2021/11/05 08:49:11;;;;;;;15.07;7.90;;;;;;;7.24;100.00;97977.69;5045815;28;20056;-85
2021/11/05 08:51:45;;;;;;;15.18;7.50;;;;;;;7.15;100.00;97975.91;5027339;28;20080;-83
2021/11/05 08:54:13;;;;;;;16.25;8.10;;;;;;;7.23;100.00;97988.72;5027567;28;20134;-85
2021/11/05 08:56:40;;;;;;;17.08;8.88;;;;;;;7.32;100.00;97997.78;5028077;28;20049;-85
2021/11/05 08:59:11;;;;;;;16.33;9.05;;;;;;;7.44;100.00;97999.00;5025693;28;20427;-84
2021/11/05 09:01:38;;;;;;;16.95;8.70;;;;;;;7.34;100.00;98001.00;5025445;28;20072;-86
2021/11/05 09:04:05;;;;;;;15.75;8.45;;;;;;;7.33;100.00;98010.19;5027069;28;20176;-85
2021/11/05 09:06:32;;;;;;;17.50;8.32;;;;;;;7.31;100.00;98002.38;5045509;28;20053;-85
2021/11/05 09:09:00;;;;;;;16.05;8.13;;;;;;;7.33;100.00;98000.19;5049232;28;20045;-84
2021/11/05 09:11:29;;;;;;;15.93;8.13;;;;;;;7.44;100.00;98017.88;5051102;28;20048;-85
2021/11/05 09:13:56;;;;;;;14.70;7.85;;;;;;;7.42;100.00;98027.31;5050129;28;20119;-85
2021/11/05 09:16:27;;;;;;;15.45;7.43;;;;;;;7.40;100.00;98024.13;5050141;28;20092;-84
2021/11/05 09:18:56;;;;;;;13.45;7.80;;;;;;;7.50;100.00;98026.69;5029920;28;20560;-84
2021/11/05 09:21:23;;;;;;;18.00;7.95;;;;;;;7.58;100.00;98027.97;5036849;28;20053;-85
2021/11/05 09:23:49;;;;;;;15.55;8.18;;;;;;;7.39;100.00;98026.00;5051197;28;20068;-85
2021/11/05 09:26:18;;;;;;;20.23;8.77;;;;;;;7.26;100.00;98036.63;5055041;28;20053;-86
2021/11/05 09:28:44;;;;;;;12.45;6.60;;;;;;;7.38;100.00;98035.16;5036578;28;20053;-85
2021/11/05 09:31:11;;;;;;;16.42;8.25;;;;;;;7.38;100.00;98045.94;5034398;28;20060;-85
2021/11/05 09:33:37;;;;;;;15.40;7.82;;;;;;;7.52;100.00;98057.66;5050077;28;20126;-86
2021/11/05 09:36:04;;;;;;;14.70;7.78;;;;;;;7.52;100.00;98060.34;5031396;28;20110;-84
2021/11/05 09:38:31;;;;;;;16.30;8.07;;;;;;;7.45;100.00;98067.16;5049594;28;20465;-84
2021/11/05 09:40:57;;;;;;;16.48;8.60;;;;;;;7.60;100.00;98066.19;5051958;28;20060;-85
2021/11/05 09:43:24;;;;;;;20.63;8.77;;;;;;;7.64;100.00;98069.94;5033470;28;20102;-84
2021/11/05 09:45:51;;;;;;;15.80;7.90;;;;;;;7.51;100.00;98077.59;5050926;28;20457;-84
2021/11/05 09:48:21;;;;;;;13.73;6.68;;;;;;;7.61;100.00;98098.25;5030490;28;20055;-84
2021/11/05 09:50:48;;;;;;;11.55;6.20;;;;;;;7.58;100.00;98087.25;5031531;28;20150;-85
2021/11/05 09:53:15;;;;;;;10.82;6.10;;;;;;;7.66;100.00;98089.31;5030016;28;20075;-84
2021/11/05 09:55:45;;;;;;;9.77;5.93;;;;;;;7.60;100.00;98095.84;5048251;28;20053;-84
2021/11/05 09:58:13;;;;;;;12.27;6.07;;;;;;;7.64;100.00;98097.66;5049060;28;20053;-83
2021/11/05 10:00:41;;;;;;;8.93;5.35;;;;;;;7.61;100.00;98103.66;5050522;28;20049;-84
2021/11/05 10:03:07;;;;;;;13.48;5.97;;;;;;;7.50;100.00;98097.56;5050614;28;20140;-84
2021/11/05 10:05:35;;;;;;;13.10;6.15;;;;;;;7.61;100.00;98114.44;5030158;28;20114;-84
2021/11/05 10:08:03;;;;;;;13.07;6.38;;;;;;;7.62;100.00;98101.72;5047252;28;20060;-84
2021/11/05 10:10:32;;;;;;;12.23;6.10;;;;;;;7.60;100.00;98114.69;5029700;28;20127;-85
2021/11/05 10:13:11;;;;;;;12.32;6.30;;;;;;;7.48;100.00;98104.31;5047216;28;20208;-85
2021/11/05 10:15:42;;;;;;;10.50;5.70;;;;;;;7.37;100.00;98110.84;5029482;28;20060;-85
2021/11/05 10:18:26;;;;;;;11.48;5.57;;;;;;;7.37;100.00;98119.75;5044307;28;20061;-84
2021/11/05 10:21:11;;;;;;;10.60;5.88;;;;;;;7.37;100.00;98100.91;5047333;28;20061;-84
2021/11/05 10:23:40;;;;;;;12.02;6.35;;;;;;;7.36;100.00;98120.00;5031090;28;20049;-84
2021/11/05 10:26:17;;;;;;;13.98;6.80;;;;;;;7.50;100.00;98116.41;5047012;28;20099;-85
2021/11/05 10:28:44;;;;;;;12.20;6.38;;;;;;;7.52;100.00;98119.63;5031166;28;20072;-84
2021/11/05 10:31:11;;;;;;;10.52;5.78;;;;;;;7.45;100.00;98126.41;5030483;28;20076;-84
2021/11/05 10:33:44;;;;;;;12.38;6.38;;;;;;;7.45;100.00;98131.81;5050515;28;20071;-84
2021/11/05 10:36:22;;;;;;;13.30;6.80;;;;;;;7.62;100.00;98125.97;5031744;28;20527;-84
2021/11/05 10:38:51;;;;;;;10.32;6.25;;;;;;;7.51;100.00;98139.53;5031130;28;20057;-84
2021/11/05 10:41:21;;;;;;;13.63;6.97;;;;;;;7.49;100.00;98146.31;5031187;28;20094;-82
2021/11/05 10:43:54;;;;;;;13.57;7.00;;;;;;;7.40;100.00;98140.75;5031537;28;20049;-83
2021/11/05 10:46:29;;;;;;;10.93;5.90;;;;;;;7.39;100.00;98147.19;5031242;28;20567;-83
2021/11/05 10:48:59;;;;;;;7.88;4.25;;;;;;;7.40;100.00;98148.00;5048327;28;20459;-84
2021/11/05 10:51:28;;;;;;;10.18;5.60;;;;;;;7.35;100.00;98143.47;5048500;28;20366;-85
2021/11/05 10:53:57;;;;;;;9.70;5.93;;;;;;;7.32;100.00;98160.19;5039966;28;20146;-85
2021/11/05 10:56:25;;;;;;;9.63;5.80;;;;;;;7.31;100.00;98163.16;5044502;28;20053;-83
2021/11/05 10:59:00;;;;;;;10.27;4.60;;;;;;;7.24;100.00;98160.78;5051537;28;20091;-84
2021/11/05 11:01:34;;;;;;;11.18;5.80;;;;;;;7.54;100.00;98154.34;5062283;28;20072;-83
2021/11/05 11:04:04;;;;;;;11.40;5.38;;;;;;;7.45;100.00;98158.75;5070053;28;20126;-85
2021/11/05 11:06:34;;;;;;;10.55;6.18;;;;;;;7.65;100.00;98169.34;5068132;28;20052;-83
2021/11/05 11:09:07;;;;;;;13.25;6.95;;;;;;;7.53;100.00;98174.31;5051195;28;20056;-84
2021/11/05 11:11:38;;;;;;;10.18;4.90;;;;;;;7.31;100.00;98165.84;5069104;28;20048;-84
2021/11/05 11:14:08;;;;;;;7.25;4.60;;;;;;;7.33;100.00;98169.84;5067974;28;20071;-84
2021/11/05 11:16:43;;;;;;;9.57;4.93;;;;;;;7.49;100.00;98168.66;5034033;28;20528;-83
2021/11/05 11:19:13;;;;;;;7.85;4.65;;;;;;;7.46;100.00;98171.09;5049042;28;20045;-85
2021/11/05 11:21:47;;;;;;;8.05;4.57;;;;;;;7.38;100.00;98175.22;5040165;28;20550;-86
2021/11/05 11:24:16;;;;;;;8.30;4.47;;;;;;;7.51;100.00;98173.75;5018174;28;20053;-82
2021/11/05 11:26:45;;;;;;;7.07;4.68;;;;;;;7.52;100.00;98170.00;5037673;28;20060;-85